createdAt,value
2023-04-26T00:00:30.374Z,559.6154
2023-04-26T00:01:33.345Z,558.1539
2023-04-26T00:02:36.376Z,559.6923
2023-04-26T00:03:39.298Z,561.7692
2023-04-26T00:04:42.249Z,565.0769
2023-04-26T00:05:45.132Z,569.9231
2023-04-26T00:06:48.130Z,570.7692
2023-04-26T00:07:50.936Z,574.5385
2023-04-26T00:08:54.238Z,572.3077
2023-04-26T00:09:56.868Z,572.8461
2023-04-26T00:10:59.799Z,574.0769
2023-04-26T00:12:02.794Z,572.6154
2023-04-26T00:13:05.747Z,571.2308
2023-04-26T00:14:08.711Z,571.2308
2023-04-26T00:15:11.644Z,572.8461
2023-04-26T00:16:14.576Z,568.8461
2023-04-26T00:17:17.520Z,566.4615
2023-04-26T00:18:20.478Z,568.0000
2023-04-26T00:19:23.413Z,566.6154
2023-04-26T00:20:26.420Z,566.3846
2023-04-26T00:21:29.366Z,562.9231
2023-04-26T00:22:32.283Z,565.7692
2023-04-26T00:23:35.219Z,564.3846
2023-04-26T00:24:38.176Z,563.8461
2023-04-26T00:25:41.152Z,565.6923
2023-04-26T00:26:44.068Z,568.9231
2023-04-26T00:27:47.026Z,569.7692
2023-04-26T00:28:50.264Z,569.7692
2023-04-26T00:29:52.915Z,574.2308
2023-04-26T00:30:55.891Z,576.0769
2023-04-26T00:31:58.947Z,583.1539
2023-04-26T00:33:01.800Z,581.0769
2023-04-26T00:34:04.718Z,575.2308
2023-04-26T00:35:07.706Z,568.6923
2023-04-26T00:36:10.617Z,568.4615
2023-04-26T00:37:13.576Z,563.0769
2023-04-26T00:38:16.517Z,558.8461
2023-04-26T00:39:19.465Z,558.6154
2023-04-26T00:40:22.451Z,560.3077
2023-04-26T00:41:25.374Z,558.3846
2023-04-26T00:42:28.390Z,557.6154
2023-04-26T00:43:31.260Z,559.2308
2023-04-26T00:44:34.219Z,563.4615
2023-04-26T00:45:37.235Z,561.6154
2023-04-26T00:46:40.111Z,565.2308
2023-04-26T00:47:43.082Z,567.0769
2023-04-26T00:48:46.009Z,566.8461
2023-04-26T00:49:48.983Z,570.0000
2023-04-26T00:50:51.946Z,573.5385
2023-04-26T00:51:54.913Z,571.5385
2023-04-26T00:52:57.817Z,577.3846
2023-04-26T00:54:00.764Z,588.5385
2023-04-26T00:55:03.755Z,599.4615
2023-04-26T00:56:06.837Z,598.9231
2023-04-26T00:57:09.641Z,597.2308
2023-04-26T00:58:12.664Z,595.2308
2023-04-26T00:59:15.530Z,615.6154
2023-04-26T01:00:18.493Z,638.0000
2023-04-26T01:01:21.637Z,642.5385
2023-04-26T01:02:24.444Z,644.5385
2023-04-26T01:03:27.495Z,646.8461
2023-04-26T01:04:30.408Z,625.5385
2023-04-26T01:05:33.275Z,616.7692
2023-04-26T01:06:36.202Z,623.8461
2023-04-26T01:07:39.149Z,623.2308
2023-04-26T01:08:42.075Z,621.2308
2023-04-26T01:09:45.018Z,618.4615
2023-04-26T01:10:48.008Z,616.5385
2023-04-26T01:11:50.921Z,621.6154
2023-04-26T01:12:53.885Z,626.6154
2023-04-26T01:13:56.822Z,623.8461
2023-04-26T01:14:59.787Z,614.1539
2023-04-26T01:16:02.849Z,612.1539
2023-04-26T01:17:05.786Z,614.8461
2023-04-26T01:18:08.635Z,616.1539
2023-04-26T01:19:11.571Z,611.8461
2023-04-26T01:20:14.520Z,610.4615
2023-04-26T01:21:17.479Z,608.1539
2023-04-26T01:22:20.430Z,612.0000
2023-04-26T01:23:23.469Z,626.1539
2023-04-26T01:24:26.376Z,652.8461
2023-04-26T01:25:29.287Z,661.6154
2023-04-26T01:26:32.240Z,658.6923
2023-04-26T01:27:35.191Z,654.9231
2023-04-26T01:28:38.224Z,653.6923
2023-04-26T01:29:41.128Z,651.0769
2023-04-26T01:30:44.078Z,650.0000
2023-04-26T01:31:47.021Z,647.6923
2023-04-26T01:32:49.997Z,645.4615
2023-04-26T01:33:52.980Z,641.0000
2023-04-26T01:34:55.868Z,636.9231
2023-04-26T01:35:58.799Z,637.5385
2023-04-26T01:37:01.754Z,649.1539
2023-04-26T01:38:04.736Z,654.0769
2023-04-26T01:39:07.657Z,650.8461
2023-04-26T01:40:10.629Z,631.6923
2023-04-26T01:41:13.566Z,623.9231
2023-04-26T01:42:16.515Z,621.3077
2023-04-26T01:43:19.484Z,620.0769
2023-04-26T01:44:22.432Z,622.9231
2023-04-26T01:45:25.415Z,622.9231
2023-04-26T01:46:28.358Z,615.0000
2023-04-26T01:47:31.456Z,608.5385
2023-04-26T01:48:34.338Z,608.2308
2023-04-26T01:49:37.321Z,606.6154
2023-04-26T01:50:40.216Z,604.8461
2023-04-26T01:51:43.177Z,600.5385
2023-04-26T01:52:46.121Z,599.8461
2023-04-26T01:53:49.078Z,601.7692
2023-04-26T01:54:52.024Z,598.1539
2023-04-26T01:55:54.968Z,598.3846
2023-04-26T01:56:57.923Z,619.1539
2023-04-26T01:58:00.866Z,650.5385
2023-04-26T01:59:03.827Z,667.3846
2023-04-26T02:00:06.779Z,671.1539
2023-04-26T02:01:09.792Z,666.6923
2023-04-26T02:02:12.748Z,650.6154
2023-04-26T02:03:15.744Z,629.0000
2023-04-26T02:04:18.574Z,618.7692
2023-04-26T02:05:21.618Z,615.2308
2023-04-26T02:06:24.504Z,613.6923
2023-04-26T02:07:27.474Z,606.6923
2023-04-26T02:08:30.422Z,604.6154
2023-04-26T02:09:33.354Z,605.8461
2023-04-26T02:10:36.364Z,606.4615
2023-04-26T02:11:39.266Z,606.0000
2023-04-26T02:12:42.229Z,606.3846
2023-04-26T02:13:45.162Z,607.0000
2023-04-26T02:14:48.129Z,600.8461
2023-04-26T02:15:51.097Z,598.2308
2023-04-26T02:16:54.076Z,596.3846
2023-04-26T02:17:57.064Z,596.6154
2023-04-26T02:18:59.931Z,596.5385
2023-04-26T02:20:02.904Z,595.8461
2023-04-26T02:21:05.845Z,611.8461
2023-04-26T02:22:08.810Z,617.5385
2023-04-26T02:23:11.753Z,616.8461
2023-04-26T02:24:14.718Z,608.4615
2023-04-26T02:25:17.716Z,604.3077
2023-04-26T02:26:20.646Z,602.3846
2023-04-26T02:27:23.592Z,598.7692
2023-04-26T02:28:26.564Z,601.5385
2023-04-26T02:29:42.250Z,600.9231
2023-04-26T02:30:32.431Z,596.2308
2023-04-26T02:31:35.444Z,593.7692
2023-04-26T02:32:38.397Z,595.1539
2023-04-26T02:33:41.372Z,597.3077
2023-04-26T02:34:44.256Z,600.8461
2023-04-26T02:35:47.199Z,602.5385
2023-04-26T02:36:50.179Z,602.3077
2023-04-26T02:37:53.093Z,600.3846
2023-04-26T02:38:56.077Z,603.7692
2023-04-26T02:39:59.006Z,598.8461
2023-04-26T02:41:02.034Z,596.3846
2023-04-26T02:42:05.113Z,594.2308
2023-04-26T02:43:07.854Z,589.6923
2023-04-26T02:44:10.826Z,589.4615
2023-04-26T02:45:13.784Z,589.7692
2023-04-26T02:46:17.394Z,589.3077
2023-04-26T02:47:19.657Z,579.3846
2023-04-26T02:48:22.622Z,579.5385
2023-04-26T02:49:25.599Z,584.8461
2023-04-26T02:50:28.582Z,587.5385
2023-04-26T02:51:31.461Z,589.0769
2023-04-26T02:52:34.446Z,590.7692
2023-04-26T02:53:37.378Z,591.5385
2023-04-26T02:54:40.410Z,593.0000
2023-04-26T02:55:43.284Z,596.3846
2023-04-26T02:56:46.236Z,601.3846
2023-04-26T02:57:49.184Z,599.2308
2023-04-26T02:58:52.368Z,605.3846
2023-04-26T02:59:55.095Z,609.6923
2023-04-26T03:02:01.029Z,607.0000
2023-04-26T03:03:04.047Z,610.0000
2023-04-26T03:04:07.079Z,628.8461
2023-04-26T03:05:09.900Z,630.7692
2023-04-26T03:06:12.799Z,625.6154
2023-04-26T03:07:15.781Z,617.6923
2023-04-26T03:08:18.682Z,613.2308
2023-04-26T03:09:21.645Z,610.9231
2023-04-26T03:10:24.593Z,615.2308
2023-04-26T03:11:27.573Z,626.0769
2023-04-26T03:12:30.484Z,629.4615
2023-04-26T03:13:33.498Z,630.0000
2023-04-26T03:14:36.395Z,631.6923
2023-04-26T03:15:39.359Z,634.6923
2023-04-26T03:16:42.402Z,628.2308
2023-04-26T03:17:45.269Z,622.3846
2023-04-26T03:18:48.218Z,616.2308
2023-04-26T03:19:51.144Z,613.3077
2023-04-26T03:20:54.116Z,615.0000
2023-04-26T03:21:57.049Z,617.8461
2023-04-26T03:23:00.011Z,608.1539
2023-04-26T03:24:02.963Z,603.3846
2023-04-26T03:25:05.981Z,603.7692
2023-04-26T03:26:08.848Z,602.6923
2023-04-26T03:27:11.812Z,601.3846
2023-04-26T03:28:14.814Z,597.3077
2023-04-26T03:29:17.690Z,595.3077
2023-04-26T03:30:20.645Z,594.0000
2023-04-26T03:31:23.706Z,596.2308
2023-04-26T03:32:26.576Z,596.4615
2023-04-26T03:33:29.505Z,595.3077
2023-04-26T03:34:32.444Z,598.6154
2023-04-26T03:35:35.393Z,598.6154
2023-04-26T03:36:38.408Z,596.3846
2023-04-26T03:37:41.293Z,597.3846
2023-04-26T03:38:44.285Z,597.8461
2023-04-26T03:39:47.203Z,598.1539
2023-04-26T03:40:50.168Z,602.0769
2023-04-26T03:41:53.123Z,603.1539
2023-04-26T03:42:56.087Z,602.0769
2023-04-26T03:43:59.005Z,602.1539
2023-04-26T03:45:01.962Z,621.3077
2023-04-26T03:46:05.014Z,622.6154
2023-04-26T03:47:07.880Z,621.3077
2023-04-26T03:48:10.874Z,621.3077
2023-04-26T03:49:13.792Z,627.2308
2023-04-26T03:50:16.723Z,631.0000
2023-04-26T03:51:19.685Z,629.0000
2023-04-26T03:52:22.623Z,625.0769
2023-04-26T03:53:25.589Z,621.2308
2023-04-26T03:54:28.538Z,618.9231
2023-04-26T03:55:31.501Z,616.6154
2023-04-26T03:56:34.472Z,615.2308
2023-04-26T03:57:37.396Z,614.7692
2023-04-26T03:58:40.395Z,613.0000
2023-04-26T03:59:43.304Z,613.0000
2023-04-26T04:00:46.243Z,615.6923
2023-04-26T04:01:49.204Z,614.3077
2023-04-26T04:02:52.289Z,612.9231
2023-04-26T04:03:55.463Z,609.5385
2023-04-26T04:04:58.222Z,609.7692
2023-04-26T04:06:01.210Z,612.8461
2023-04-26T04:07:03.973Z,614.3846
2023-04-26T04:08:07.157Z,617.0000
2023-04-26T04:09:09.918Z,618.0769
2023-04-26T04:10:12.855Z,618.1539
2023-04-26T04:11:16.904Z,618.0000
2023-04-26T04:12:18.854Z,618.3846
2023-04-26T04:13:21.710Z,623.8461
2023-04-26T04:14:24.692Z,626.3077
2023-04-26T04:15:27.682Z,628.4615
2023-04-26T04:16:30.672Z,626.6154
2023-04-26T04:17:33.563Z,627.6154
2023-04-26T04:18:36.627Z,628.6154
2023-04-26T04:19:39.458Z,625.0769
2023-04-26T04:20:42.400Z,625.7692
2023-04-26T04:21:45.376Z,627.0000
2023-04-26T04:22:48.301Z,628.3077
2023-04-26T04:23:51.253Z,630.9231
2023-04-26T04:24:54.243Z,630.3077
2023-04-26T04:25:57.169Z,627.4615
2023-04-26T04:27:00.126Z,626.9231
2023-04-26T04:28:03.147Z,625.4615
2023-04-26T04:29:05.989Z,624.9231
2023-04-26T04:30:08.995Z,621.6923
2023-04-26T04:31:11.975Z,617.6154
2023-04-26T04:32:14.973Z,614.6923
2023-04-26T04:33:17.890Z,614.6923
2023-04-26T04:34:20.738Z,612.3846
2023-04-26T04:35:23.709Z,609.7692
2023-04-26T04:36:26.641Z,605.0000
2023-04-26T04:37:29.640Z,602.0000
2023-04-26T04:38:32.555Z,600.1539
2023-04-26T04:39:35.502Z,597.7692
2023-04-26T04:40:38.438Z,597.1539
2023-04-26T04:41:41.425Z,595.6154
2023-04-26T04:42:44.355Z,593.5385
2023-04-26T04:43:47.343Z,593.4615
2023-04-26T04:44:50.246Z,596.0769
2023-04-26T04:45:53.362Z,594.2308
2023-04-26T04:46:56.205Z,593.6154
2023-04-26T04:47:59.146Z,595.6154
2023-04-26T04:49:02.065Z,598.0769
2023-04-26T04:50:05.027Z,595.1539
2023-04-26T04:51:07.986Z,593.6154
2023-04-26T04:52:10.923Z,592.9231
2023-04-26T04:53:13.866Z,593.4615
2023-04-26T04:54:16.883Z,595.6923
2023-04-26T04:55:19.788Z,596.9231
2023-04-26T04:56:22.737Z,598.0769
2023-04-26T04:57:25.662Z,597.3077
2023-04-26T04:58:28.620Z,595.8461
2023-04-26T04:59:31.587Z,593.7692
2023-04-26T05:00:34.611Z,597.4615
2023-04-26T05:01:37.543Z,603.7692
2023-04-26T05:02:40.658Z,602.6923
2023-04-26T05:03:43.630Z,602.3077
2023-04-26T05:04:46.459Z,601.4615
2023-04-26T05:05:49.320Z,602.6154
2023-04-26T05:06:52.231Z,601.3846
2023-04-26T05:07:55.228Z,600.8461
2023-04-26T05:08:58.186Z,603.0000
2023-04-26T05:10:01.149Z,602.8461
2023-04-26T05:11:04.083Z,605.3846
2023-04-26T05:12:07.069Z,622.0769
2023-04-26T05:13:09.972Z,682.9231
2023-04-26T05:14:12.943Z,678.2308
2023-04-26T05:15:16.012Z,651.3077
2023-04-26T05:16:18.877Z,635.9231
2023-04-26T05:17:21.805Z,625.8461
2023-04-26T05:18:24.741Z,618.6923
2023-04-26T05:19:27.719Z,616.5385
2023-04-26T05:20:30.654Z,612.5385
2023-04-26T05:21:33.610Z,609.4615
2023-04-26T05:22:36.586Z,608.1539
2023-04-26T05:23:39.542Z,607.8461
2023-04-26T05:24:42.476Z,606.6154
2023-04-26T05:25:45.477Z,607.0769
2023-04-26T05:26:48.376Z,606.3846
2023-04-26T05:27:51.383Z,604.4615
2023-04-26T05:28:54.401Z,603.0769
2023-04-26T05:29:57.251Z,600.4615
2023-04-26T05:31:00.214Z,600.8461
2023-04-26T05:32:03.230Z,600.8461
2023-04-26T05:33:06.198Z,597.8461
2023-04-26T05:34:09.067Z,597.2308
2023-04-26T05:35:12.008Z,594.0000
2023-04-26T05:36:14.962Z,592.5385
2023-04-26T05:37:17.918Z,590.4615
2023-04-26T05:38:20.844Z,588.3846
2023-04-26T05:39:23.805Z,588.6154
2023-04-26T05:40:26.779Z,590.6154
2023-04-26T05:41:29.718Z,593.0000
2023-04-26T05:42:32.718Z,595.2308
2023-04-26T05:43:35.642Z,594.3846
2023-04-26T05:44:38.593Z,595.7692
2023-04-26T05:45:41.583Z,595.6923
2023-04-26T05:46:44.522Z,597.7692
2023-04-26T05:47:47.503Z,593.7692
2023-04-26T05:48:50.403Z,587.3846
2023-04-26T05:49:53.517Z,585.1539
2023-04-26T05:50:56.327Z,584.2308
2023-04-26T05:51:59.302Z,582.2308
2023-04-26T05:53:02.268Z,581.4615
2023-04-26T05:54:05.199Z,580.5385
2023-04-26T05:55:08.164Z,578.9231
2023-04-26T05:56:11.179Z,578.6154
2023-04-26T05:57:14.136Z,577.8461
2023-04-26T05:58:17.105Z,578.6154
2023-04-26T05:59:20.071Z,580.1539
2023-04-26T06:00:22.978Z,583.3846
2023-04-26T06:01:26.025Z,580.3846
2023-04-26T06:02:28.992Z,578.8461
2023-04-26T06:03:32.082Z,579.0769
2023-04-26T06:04:34.943Z,577.4615
2023-04-26T06:05:37.735Z,575.9231
2023-04-26T06:06:40.716Z,576.0769
2023-04-26T06:07:43.637Z,576.1539
2023-04-26T06:08:46.657Z,578.5385
2023-04-26T06:09:49.572Z,578.9231
2023-04-26T06:10:52.505Z,576.1539
2023-04-26T06:11:56.274Z,572.2308
2023-04-26T06:12:58.422Z,569.4615
2023-04-26T06:14:01.364Z,567.7692
2023-04-26T06:15:04.320Z,567.8461
2023-04-26T06:16:07.267Z,566.6154
2023-04-26T06:17:10.263Z,565.3846
2023-04-26T06:18:13.151Z,568.8461
2023-04-26T06:19:16.088Z,568.3846
2023-04-26T06:20:19.076Z,569.3077
2023-04-26T06:21:22.016Z,568.7692
2023-04-26T06:22:24.922Z,568.3077
2023-04-26T06:23:27.971Z,567.3846
2023-04-26T06:24:30.871Z,567.3077
2023-04-26T06:25:33.804Z,571.5385
2023-04-26T06:26:36.728Z,569.2308
2023-04-26T06:27:39.681Z,567.3077
2023-04-26T06:28:42.626Z,564.9231
2023-04-26T06:29:45.590Z,565.5385
2023-04-26T06:30:48.639Z,563.6923
2023-04-26T06:31:51.475Z,559.0000
2023-04-26T06:32:54.513Z,560.0769
2023-04-26T06:33:57.437Z,559.5385
2023-04-26T06:35:00.366Z,556.6154
2023-04-26T06:36:03.320Z,554.8461
2023-04-26T06:37:06.340Z,553.7692
2023-04-26T06:38:09.201Z,549.7692
2023-04-26T06:39:12.120Z,548.0769
2023-04-26T06:40:15.135Z,545.7692
2023-04-26T06:41:18.017Z,547.8461
2023-04-26T06:42:20.985Z,546.0769
2023-04-26T06:43:23.899Z,545.3077
2023-04-26T06:44:26.870Z,545.7692
2023-04-26T06:45:29.821Z,546.8461
2023-04-26T06:46:32.835Z,551.6154
2023-04-26T06:47:35.793Z,549.0769
2023-04-26T06:48:38.659Z,547.0000
2023-04-26T06:49:41.629Z,544.8461
2023-04-26T06:50:44.591Z,540.3846
2023-04-26T06:51:47.522Z,541.7692
2023-04-26T06:52:50.533Z,544.0000
2023-04-26T06:53:53.686Z,545.9231
2023-04-26T06:54:57.729Z,550.2308
2023-04-26T06:55:59.289Z,551.8461
2023-04-26T06:57:02.370Z,555.0769
2023-04-26T06:58:05.184Z,552.9231
2023-04-26T06:59:08.151Z,554.4615
2023-04-26T07:00:11.107Z,555.6154
2023-04-26T07:01:14.080Z,557.4615
2023-04-26T07:02:17.043Z,559.0769
2023-04-26T07:03:20.370Z,561.7692
2023-04-26T07:04:23.271Z,559.7692
2023-04-26T07:05:26.033Z,559.0769
2023-04-26T07:06:28.740Z,556.3077
2023-04-26T07:07:31.700Z,555.3846
2023-04-26T07:08:34.763Z,555.1539
2023-04-26T07:09:37.624Z,561.0000
2023-04-26T07:10:40.544Z,563.0000
2023-04-26T07:11:43.488Z,556.0769
2023-04-26T07:12:46.595Z,552.9231
2023-04-26T07:13:49.415Z,544.8461
2023-04-26T07:14:52.363Z,542.8461
2023-04-26T07:15:55.346Z,543.2308
2023-04-26T07:16:58.260Z,545.2308
2023-04-26T07:18:01.199Z,542.0000
2023-04-26T07:19:04.108Z,548.0000
2023-04-26T07:20:07.083Z,547.2308
2023-04-26T07:21:10.045Z,542.9231
2023-04-26T07:22:13.362Z,538.2308
2023-04-26T07:23:15.897Z,538.2308
2023-04-26T07:24:18.867Z,531.5385
2023-04-26T07:25:21.790Z,527.6154
2023-04-26T07:26:24.753Z,529.4615
2023-04-26T07:27:27.688Z,530.5385
2023-04-26T07:28:30.750Z,531.5385
2023-04-26T07:29:33.598Z,532.4615
2023-04-26T07:30:36.543Z,539.3077
2023-04-26T07:31:39.497Z,539.1539
2023-04-26T07:32:42.501Z,538.3846
2023-04-26T07:33:45.586Z,535.3077
2023-04-26T07:34:48.357Z,531.0000
2023-04-26T07:35:51.247Z,524.3846
2023-04-26T07:36:54.201Z,517.5385
2023-04-26T07:37:57.152Z,513.7692
2023-04-26T07:39:00.128Z,509.3077
2023-04-26T07:40:03.110Z,506.3846
2023-04-26T07:41:05.992Z,502.4615
2023-04-26T07:42:08.918Z,498.6923
2023-04-26T07:43:11.903Z,499.6923
2023-04-26T07:44:14.838Z,498.3077
2023-04-26T07:45:17.750Z,496.7692
2023-04-26T07:46:20.737Z,500.1538
2023-04-26T07:47:23.664Z,501.3846
2023-04-26T07:48:26.582Z,505.9231
2023-04-26T07:49:29.541Z,503.4615
2023-04-26T07:50:32.479Z,500.5385
2023-04-26T07:51:35.415Z,500.6923
2023-04-26T07:52:38.361Z,509.5385
2023-04-26T07:53:41.301Z,510.1538
2023-04-26T07:54:44.291Z,509.1538
2023-04-26T07:55:47.944Z,507.5385
2023-04-26T07:56:50.126Z,509.5385
2023-04-26T07:57:53.138Z,508.5385
2023-04-26T07:58:56.023Z,505.3077
2023-04-26T07:59:58.953Z,503.6923
2023-04-26T08:01:01.909Z,505.5385
2023-04-26T08:02:04.878Z,499.7692
2023-04-26T08:03:07.998Z,498.7692
2023-04-26T08:04:11.124Z,498.3846
2023-04-26T08:05:13.955Z,497.6923
2023-04-26T08:06:16.710Z,497.3846
2023-04-26T08:07:19.550Z,495.3077
2023-04-26T08:08:22.571Z,493.0769
2023-04-26T08:09:25.455Z,492.2308
2023-04-26T08:10:28.556Z,490.0000
2023-04-26T08:11:31.397Z,487.1538
2023-04-26T08:12:34.278Z,486.6923
2023-04-26T08:13:37.272Z,489.8462
2023-04-26T08:14:40.155Z,493.1538
2023-04-26T08:15:43.114Z,495.0769
2023-04-26T08:16:46.141Z,484.0769
2023-04-26T08:17:49.012Z,479.0000
2023-04-26T08:18:51.977Z,477.0000
2023-04-26T08:19:54.866Z,476.9231
2023-04-26T08:20:57.813Z,477.3846
2023-04-26T08:22:00.792Z,479.2308
2023-04-26T08:23:03.706Z,479.3846
2023-04-26T08:24:06.646Z,478.0000
2023-04-26T08:25:09.617Z,475.8462
2023-04-26T08:26:12.560Z,474.4615
2023-04-26T08:27:15.582Z,473.3846
2023-04-26T08:28:18.451Z,474.9231
2023-04-26T08:29:21.395Z,475.9231
2023-04-26T08:30:24.356Z,473.8462
2023-04-26T08:31:27.316Z,475.7692
2023-04-26T08:32:30.249Z,474.0769
2023-04-26T08:33:33.157Z,474.6154
2023-04-26T08:34:36.099Z,473.0769
2023-04-26T08:35:39.089Z,472.0000
2023-04-26T08:36:41.993Z,469.0769
2023-04-26T08:37:44.923Z,466.2308
2023-04-26T08:38:47.895Z,467.3846
2023-04-26T08:39:50.799Z,468.1538
2023-04-26T08:40:53.791Z,468.0000
2023-04-26T08:41:56.706Z,467.2308
2023-04-26T08:42:59.729Z,468.0000
2023-04-26T08:44:02.775Z,468.3846
2023-04-26T08:45:05.626Z,470.5385
2023-04-26T08:46:08.515Z,470.3077
2023-04-26T08:47:11.452Z,468.0769
2023-04-26T08:48:14.422Z,467.0769
2023-04-26T08:49:17.337Z,469.0000
2023-04-26T08:50:20.291Z,471.3846
2023-04-26T08:51:23.416Z,472.1538
2023-04-26T08:52:26.163Z,468.5385
2023-04-26T08:53:29.122Z,466.2308
2023-04-26T08:54:32.148Z,466.0769
2023-04-26T08:55:35.051Z,465.5385
2023-04-26T08:56:37.956Z,467.3077
2023-04-26T08:57:40.947Z,464.0000
2023-04-26T08:58:43.935Z,463.5385
2023-04-26T08:59:46.805Z,463.4615
2023-04-26T09:00:49.919Z,463.5385
2023-04-26T09:01:52.751Z,463.3077
2023-04-26T09:02:55.752Z,462.3846
2023-04-26T09:03:58.881Z,464.0000
2023-04-26T09:05:01.804Z,461.4615
2023-04-26T09:06:04.614Z,463.6923
2023-04-26T09:07:07.439Z,465.0000
2023-04-26T09:08:10.396Z,463.0769
2023-04-26T09:09:13.325Z,461.3846
2023-04-26T09:10:16.260Z,461.6923
2023-04-26T09:11:19.237Z,464.3077
2023-04-26T09:12:22.157Z,468.2308
2023-04-26T09:13:25.148Z,462.6154
2023-04-26T09:14:28.081Z,455.5385
2023-04-26T09:15:30.992Z,454.6923
2023-04-26T09:16:34.089Z,451.5385
2023-04-26T09:17:37.220Z,448.6923
2023-04-26T09:18:39.837Z,452.4615
2023-04-26T09:19:42.769Z,461.0769
2023-04-26T09:20:45.728Z,465.4615
2023-04-26T09:21:48.723Z,467.3077
2023-04-26T09:22:51.644Z,457.9231
2023-04-26T09:23:54.562Z,448.0000
2023-04-26T09:24:57.557Z,453.1538
2023-04-26T09:26:00.439Z,458.9231
2023-04-26T09:27:03.403Z,458.5385
2023-04-26T09:28:06.364Z,458.9231
2023-04-26T09:29:09.294Z,458.8462
2023-04-26T09:30:12.242Z,459.6154
2023-04-26T09:31:15.237Z,459.6154
2023-04-26T09:32:18.187Z,458.6154
2023-04-26T09:33:21.134Z,456.3846
2023-04-26T09:34:24.020Z,456.5385
2023-04-26T09:35:26.967Z,457.2308
2023-04-26T09:36:29.909Z,455.6154
2023-04-26T09:37:34.386Z,455.0000
2023-04-26T09:38:35.847Z,455.8462
2023-04-26T09:39:38.768Z,453.7692
2023-04-26T09:40:41.770Z,455.9231
2023-04-26T09:41:44.680Z,454.3077
2023-04-26T09:42:47.601Z,452.7692
2023-04-26T09:43:50.733Z,449.3846
2023-04-26T09:44:53.499Z,447.9231
2023-04-26T09:45:56.453Z,450.7692
2023-04-26T09:46:59.446Z,447.3077
2023-04-26T09:48:02.376Z,444.6154
2023-04-26T09:49:05.335Z,446.5385
2023-04-26T09:50:08.285Z,447.8462
2023-04-26T09:51:11.202Z,449.4615
2023-04-26T09:52:14.144Z,450.1538
2023-04-26T09:53:17.147Z,447.5385
2023-04-26T09:54:20.053Z,448.6923
2023-04-26T09:55:34.231Z,450.3846
2023-04-26T09:56:25.961Z,449.0769
2023-04-26T09:57:28.922Z,450.0000
2023-04-26T09:58:31.836Z,452.7692
2023-04-26T09:59:34.809Z,452.3846
2023-04-26T10:00:37.751Z,450.5385
2023-04-26T10:01:40.696Z,449.7692
2023-04-26T10:02:43.732Z,453.0000
2023-04-26T10:03:46.855Z,454.7692
2023-04-26T10:04:49.678Z,453.3846
2023-04-26T10:05:52.532Z,452.2308
2023-04-26T10:06:55.520Z,451.6154
2023-04-26T10:07:58.419Z,451.3846
2023-04-26T10:09:01.366Z,451.6154
2023-04-26T10:10:04.348Z,451.7692
2023-04-26T10:11:07.268Z,452.4615
2023-04-26T10:12:10.210Z,450.3077
2023-04-26T10:13:13.302Z,450.8462
2023-04-26T10:14:16.105Z,449.6154
2023-04-26T10:15:19.095Z,448.1538
2023-04-26T10:16:22.070Z,447.2308
2023-04-26T10:17:25.018Z,446.5385
2023-04-26T10:18:27.964Z,444.4615
2023-04-26T10:19:30.869Z,445.0000
2023-04-26T10:20:33.931Z,446.6154
2023-04-26T10:21:36.754Z,444.9231
2023-04-26T10:22:39.776Z,440.5385
2023-04-26T10:23:42.648Z,438.8462
2023-04-26T10:24:45.585Z,437.1538
2023-04-26T10:25:48.553Z,435.1538
2023-04-26T10:26:51.497Z,436.4615
2023-04-26T10:27:54.436Z,437.0000
2023-04-26T10:29:02.084Z,437.0000
2023-04-26T10:30:00.327Z,440.5385
2023-04-26T10:31:03.278Z,442.3077
2023-04-26T10:32:06.346Z,442.3846
2023-04-26T10:33:09.270Z,443.0000
2023-04-26T10:34:12.227Z,444.0769
2023-04-26T10:35:15.089Z,444.4615
2023-04-26T10:36:18.076Z,443.9231
2023-04-26T10:37:21.074Z,439.3077
2023-04-26T10:38:23.962Z,434.3846
2023-04-26T10:39:26.969Z,435.8462
2023-04-26T10:40:29.876Z,438.3077
2023-04-26T10:41:32.880Z,439.8462
2023-04-26T10:42:35.793Z,435.1538
2023-04-26T10:43:38.735Z,433.8462
2023-04-26T10:44:41.694Z,435.2308
2023-04-26T10:45:44.669Z,437.9231
2023-04-26T10:46:47.605Z,432.4615
2023-04-26T10:47:50.635Z,432.7692
2023-04-26T10:48:53.866Z,433.7692
2023-04-26T10:49:56.482Z,435.0000
2023-04-26T10:50:59.473Z,436.7692
2023-04-26T10:52:02.378Z,437.3077
2023-04-26T10:53:05.411Z,435.5385
2023-04-26T10:54:08.292Z,436.1538
2023-04-26T10:55:11.435Z,435.3846
2023-04-26T10:56:14.182Z,433.4615
2023-04-26T10:57:17.151Z,431.0769
2023-04-26T10:58:20.123Z,429.7692
2023-04-26T10:59:39.688Z,426.7692
2023-04-26T11:00:26.779Z,423.9231
2023-04-26T11:01:28.985Z,424.4615
2023-04-26T11:02:31.946Z,426.6923
2023-04-26T11:03:35.191Z,428.3077
2023-04-26T11:04:37.932Z,428.4615
2023-04-26T11:05:40.799Z,430.0000
2023-04-26T11:06:43.772Z,430.8462
2023-04-26T11:07:46.728Z,431.5385
2023-04-26T11:08:49.746Z,433.0000
2023-04-26T11:09:52.756Z,433.3077
2023-04-26T11:10:55.571Z,436.6154
2023-04-26T11:11:58.513Z,435.3077
2023-04-26T11:13:01.497Z,434.3846
2023-04-26T11:14:04.452Z,434.6923
2023-04-26T11:15:07.400Z,435.6154
2023-04-26T11:16:10.413Z,434.2308
2023-04-26T11:17:13.410Z,434.5385
2023-04-26T11:18:16.254Z,432.4615
2023-04-26T11:19:19.208Z,428.9231
2023-04-26T11:20:22.208Z,425.0769
2023-04-26T11:21:25.116Z,423.7692
2023-04-26T11:22:28.064Z,425.0000
2023-04-26T11:23:31.085Z,424.6154
2023-04-26T11:24:34.060Z,424.8462
2023-04-26T11:25:36.980Z,425.3077
2023-04-26T11:26:39.877Z,426.3077
2023-04-26T11:27:42.912Z,426.1538
2023-04-26T11:28:45.819Z,426.6154
2023-04-26T11:29:48.732Z,427.2308
2023-04-26T11:30:51.726Z,424.7692
2023-04-26T11:31:54.777Z,428.7692
2023-04-26T11:32:57.646Z,430.2308
2023-04-26T11:34:00.787Z,431.6154
2023-04-26T11:35:03.507Z,433.3846
2023-04-26T11:36:06.584Z,437.2308
2023-04-26T11:37:09.451Z,437.4615
2023-04-26T11:38:12.448Z,434.0000
2023-04-26T11:39:15.351Z,430.8462
2023-04-26T11:40:18.334Z,428.9231
2023-04-26T11:41:21.454Z,430.1538
2023-04-26T11:42:24.198Z,433.8462
2023-04-26T11:43:27.206Z,433.0000
2023-04-26T11:44:30.267Z,433.4615
2023-04-26T11:45:33.076Z,429.9231
2023-04-26T11:46:36.075Z,425.6154
2023-04-26T11:47:39.019Z,422.0000
2023-04-26T11:48:42.015Z,419.3077
2023-04-26T11:49:44.910Z,418.0000
2023-04-26T11:50:47.944Z,417.5385
2023-04-26T11:51:50.822Z,417.5385
2023-04-26T11:52:53.770Z,418.6154
2023-04-26T11:53:56.838Z,417.4615
2023-04-26T11:54:59.683Z,417.3077
2023-04-26T11:56:02.700Z,420.0769
2023-04-26T11:57:05.607Z,422.6923
2023-04-26T11:58:08.559Z,417.4615
2023-04-26T11:59:11.553Z,416.5385
2023-04-26T12:00:14.486Z,418.7692
2023-04-26T12:01:17.517Z,416.6154
2023-04-26T12:02:20.492Z,418.5385
2023-04-26T12:03:23.486Z,419.4615
2023-04-26T12:04:29.689Z,420.4615
2023-04-26T12:05:29.279Z,420.1538
2023-04-26T12:06:32.327Z,420.5385
2023-04-26T12:07:35.182Z,421.6154
2023-04-26T12:08:38.194Z,422.1538
2023-04-26T12:09:41.111Z,420.3846
2023-04-26T12:10:44.045Z,421.0000
2023-04-26T12:11:46.990Z,423.4615
2023-04-26T12:12:50.069Z,424.0000
2023-04-26T12:13:52.964Z,423.9231
2023-04-26T12:14:55.888Z,423.3846
2023-04-26T12:15:59.073Z,421.9231
2023-04-26T12:17:02.159Z,422.0000
2023-04-26T12:18:04.864Z,421.7692
2023-04-26T12:19:07.756Z,421.8462
2023-04-26T12:20:10.822Z,422.6923